createdAt,value
2019-05-15T00:00:08.983Z,5.97
2019-05-15T00:02:38.818Z,6.13
2019-05-15T00:05:09.258Z,6.19
2019-05-15T00:07:39.085Z,5.97
2019-05-15T00:10:08.999Z,6.01
2019-05-15T00:12:39.478Z,5.81
2019-05-15T00:15:09.327Z,5.81
2019-05-15T00:17:39.279Z,5.68
2019-05-15T00:20:10.038Z,5.84
2019-05-15T00:22:39.254Z,5.97
2019-05-15T00:25:09.317Z,6.02
2019-05-15T00:27:38.807Z,5.99
2019-05-15T00:30:09.757Z,5.84
2019-05-15T00:32:39.372Z,5.92
2019-05-15T00:35:09.507Z,6.00
2019-05-15T00:37:39.050Z,5.81
2019-05-15T00:40:08.835Z,5.58
2019-05-15T00:42:38.348Z,5.66
2019-05-15T00:45:09.670Z,5.57
2019-05-15T00:47:39.807Z,5.68
2019-05-15T00:50:11.095Z,5.69
2019-05-15T00:52:40.087Z,5.42
2019-05-15T00:55:09.817Z,5.37
2019-05-15T00:57:39.122Z,5.41
2019-05-15T01:00:09.599Z,5.30
2019-05-15T01:02:38.826Z,5.31
2019-05-15T01:05:09.091Z,5.33
2019-05-15T01:07:39.238Z,5.22
2019-05-15T01:10:09.875Z,5.13
2019-05-15T01:12:38.875Z,5.08
2019-05-15T01:15:09.387Z,5.07
2019-05-15T01:17:39.263Z,5.18
2019-05-15T01:20:08.781Z,5.12
2019-05-15T01:22:39.405Z,5.26
2019-05-15T01:25:08.672Z,5.37
2019-05-15T01:27:38.777Z,5.40
2019-05-15T01:30:09.384Z,5.36
2019-05-15T01:32:39.433Z,5.15
2019-05-15T01:35:09.451Z,5.19
2019-05-15T01:37:39.328Z,5.27
2019-05-15T01:40:09.158Z,5.19
2019-05-15T01:42:39.300Z,5.09
2019-05-15T01:45:09.201Z,5.10
2019-05-15T01:47:38.964Z,5.12
2019-05-15T01:50:09.516Z,5.05
2019-05-15T01:52:39.244Z,5.03
2019-05-15T01:55:09.392Z,5.10
2019-05-15T01:57:39.300Z,5.10
2019-05-15T02:00:11.826Z,5.06
2019-05-15T02:02:40.540Z,4.92
2019-05-15T02:05:10.128Z,4.85
2019-05-15T02:07:39.359Z,4.80
2019-05-15T02:10:09.436Z,4.72
2019-05-15T02:12:39.252Z,4.72
2019-05-15T02:15:09.647Z,4.94
2019-05-15T02:17:39.325Z,5.07
2019-05-15T02:20:08.948Z,4.89
2019-05-15T02:22:42.005Z,4.70
2019-05-15T02:25:08.967Z,4.73
2019-05-15T02:27:39.225Z,4.81
2019-05-15T02:30:21.418Z,4.91
2019-05-15T02:32:40.257Z,4.86
2019-05-15T02:35:10.141Z,5.01
2019-05-15T02:37:40.811Z,5.03
2019-05-15T02:40:11.339Z,4.90
2019-05-15T02:42:40.588Z,5.01
2019-05-15T02:45:11.224Z,4.88
2019-05-15T02:47:40.303Z,4.69
2019-05-15T02:50:11.069Z,4.62
2019-05-15T02:52:44.968Z,4.63
2019-05-15T02:55:10.623Z,4.55
2019-05-15T02:57:39.749Z,4.61
2019-05-15T03:00:11.101Z,4.52
2019-05-15T03:02:41.224Z,4.42
2019-05-15T03:05:10.754Z,4.31
2019-05-15T03:07:40.344Z,4.27
2019-05-15T03:10:09.809Z,4.36
2019-05-15T03:12:40.827Z,4.28
2019-05-15T03:15:10.199Z,4.16
2019-05-15T03:17:40.870Z,4.14
2019-05-15T03:20:11.398Z,4.15
2019-05-15T03:22:40.799Z,4.18
2019-05-15T03:25:11.025Z,4.31
2019-05-15T03:27:40.384Z,4.33
2019-05-15T03:30:13.703Z,4.28
2019-05-15T03:32:51.882Z,4.30
2019-05-15T03:35:14.648Z,4.28
2019-05-15T03:37:41.511Z,4.32
2019-05-15T03:40:11.052Z,4.28
2019-05-15T03:42:40.130Z,4.23
2019-05-15T03:45:10.651Z,4.21
2019-05-15T03:47:40.613Z,4.10
2019-05-15T03:50:11.131Z,4.00
2019-05-15T03:52:40.044Z,4.11
2019-05-15T03:55:10.962Z,4.13
2019-05-15T03:57:40.564Z,4.11
2019-05-15T04:00:10.487Z,4.04
2019-05-15T04:02:39.895Z,3.99
2019-05-15T04:05:11.909Z,4.12
2019-05-15T04:07:40.283Z,4.11
2019-05-15T04:10:10.524Z,4.22
2019-05-15T04:12:40.813Z,4.15
2019-05-15T04:15:10.705Z,4.23
2019-05-15T04:17:40.632Z,4.34
2019-05-15T04:20:10.921Z,4.51
2019-05-15T04:22:40.529Z,4.52
2019-05-15T04:25:10.526Z,4.58
2019-05-15T04:27:42.562Z,4.61
2019-05-15T04:30:11.599Z,4.67
2019-05-15T04:32:40.604Z,4.70
2019-05-15T04:35:09.826Z,4.70
2019-05-15T04:37:40.536Z,4.71
2019-05-15T04:40:10.535Z,4.74
2019-05-15T04:42:39.707Z,4.85
2019-05-15T04:45:10.662Z,4.89
2019-05-15T04:47:40.220Z,4.99
2019-05-15T04:50:10.118Z,5.12
2019-05-15T04:52:42.868Z,5.27
2019-05-15T04:55:10.532Z,5.36
2019-05-15T04:57:40.638Z,5.44
2019-05-15T05:00:10.715Z,5.48
2019-05-15T05:02:40.287Z,5.53
2019-05-15T05:05:10.543Z,5.70
2019-05-15T05:07:39.940Z,5.77
2019-05-15T05:10:10.328Z,5.74
2019-05-15T05:12:41.898Z,5.74
2019-05-15T05:15:09.998Z,5.72
2019-05-15T05:17:39.346Z,5.85
2019-05-15T05:20:08.440Z,5.89
2019-05-15T05:22:39.346Z,5.94
2019-05-15T05:25:08.401Z,6.11
2019-05-15T05:27:38.321Z,6.06
2019-05-15T05:30:09.634Z,6.22
2019-05-15T05:32:39.213Z,6.29
2019-05-15T05:35:08.819Z,6.39
2019-05-15T05:37:39.094Z,6.31
2019-05-15T05:40:09.057Z,6.49
2019-05-15T05:42:39.213Z,6.59
2019-05-15T05:45:09.521Z,6.68
2019-05-15T05:47:38.612Z,6.69
2019-05-15T05:50:09.807Z,6.82
2019-05-15T05:52:39.222Z,6.90
2019-05-15T05:55:09.166Z,6.91
2019-05-15T05:57:38.486Z,6.97
2019-05-15T06:00:11.088Z,7.02
2019-05-15T06:02:47.773Z,6.95
2019-05-15T06:05:10.022Z,6.93
2019-05-15T06:07:38.950Z,6.95
2019-05-15T06:10:08.904Z,6.87
2019-05-15T06:12:38.792Z,7.02
2019-05-15T06:15:09.106Z,7.02
2019-05-15T06:17:39.339Z,7.10
2019-05-15T06:20:08.546Z,7.02
2019-05-15T06:22:38.727Z,6.93
2019-05-15T06:25:11.328Z,6.90
2019-05-15T06:27:38.940Z,7.07
2019-05-15T06:30:09.281Z,7.11
2019-05-15T06:32:39.779Z,7.02
2019-05-15T06:35:10.135Z,7.10
2019-05-15T06:37:39.529Z,7.09
2019-05-15T06:40:09.179Z,7.22
2019-05-15T06:42:39.291Z,7.17
2019-05-15T06:45:08.887Z,7.31
2019-05-15T06:47:39.431Z,7.37
2019-05-15T06:50:09.291Z,7.41
2019-05-15T06:52:38.267Z,7.48
2019-05-15T06:55:09.023Z,7.57
2019-05-15T06:57:39.727Z,7.65
2019-05-15T07:00:10.575Z,7.70
2019-05-15T07:02:39.172Z,7.74
2019-05-15T07:05:08.236Z,7.60
2019-05-15T07:07:38.789Z,7.67
2019-05-15T07:10:09.251Z,7.67
2019-05-15T07:12:39.169Z,7.74
2019-05-15T07:15:09.242Z,7.86
2019-05-15T07:17:39.205Z,7.85
2019-05-15T07:20:10.250Z,8.06
2019-05-15T07:22:39.330Z,8.13
2019-05-15T07:25:09.090Z,8.03
2019-05-15T07:27:39.066Z,8.01
2019-05-15T07:30:11.938Z,8.19
2019-05-15T07:32:40.005Z,8.19
2019-05-15T07:35:09.010Z,8.24
2019-05-15T07:37:38.771Z,8.40
2019-05-15T07:40:10.125Z,8.56
2019-05-15T07:42:39.063Z,8.71
2019-05-15T07:45:09.520Z,8.89
2019-05-15T07:47:38.835Z,9.06
2019-05-15T07:50:10.398Z,9.31
2019-05-15T07:52:40.606Z,9.27
2019-05-15T07:55:10.268Z,9.32
2019-05-15T07:57:39.801Z,9.62
2019-05-15T08:00:18.786Z,9.93
2019-05-15T08:02:48.116Z,10.09
2019-05-15T08:05:18.519Z,10.40
2019-05-15T08:07:48.945Z,10.67
2019-05-15T08:10:18.476Z,10.85
2019-05-15T08:12:49.265Z,10.98
2019-05-15T08:15:18.366Z,10.95
2019-05-15T08:18:03.200Z,10.65
2019-05-15T08:20:19.467Z,10.65
2019-05-15T08:22:48.947Z,10.74
2019-05-15T08:25:31.249Z,11.12
2019-05-15T08:27:49.472Z,10.90
2019-05-15T08:30:21.383Z,10.65
2019-05-15T08:32:51.703Z,10.46
2019-05-15T08:35:21.028Z,10.42
2019-05-15T08:37:49.603Z,10.61
2019-05-15T08:40:18.302Z,10.66
2019-05-15T08:42:54.427Z,10.50
2019-05-15T08:45:18.854Z,10.62
2019-05-15T08:47:49.312Z,10.46
2019-05-15T08:50:19.678Z,10.43
2019-05-15T08:52:48.829Z,10.47
2019-05-15T08:55:20.026Z,10.66
2019-05-15T08:57:55.581Z,10.73
2019-05-15T09:00:18.695Z,10.89
2019-05-15T09:02:48.854Z,10.81
2019-05-15T09:05:19.460Z,11.18
2019-05-15T09:07:48.817Z,11.41
2019-05-15T09:10:18.534Z,11.34
2019-05-15T09:12:50.208Z,11.60
2019-05-15T09:15:19.092Z,11.73
2019-05-15T09:17:48.846Z,11.60
2019-05-15T09:20:19.509Z,11.53
2019-05-15T09:22:49.162Z,11.82
2019-05-15T09:25:19.394Z,11.99
2019-05-15T09:27:48.947Z,12.06
2019-05-15T09:30:18.491Z,11.99
2019-05-15T09:32:48.373Z,12.16
2019-05-15T09:35:21.360Z,12.28
2019-05-15T09:37:49.927Z,12.53
2019-05-15T09:40:19.489Z,12.81
2019-05-15T09:42:48.846Z,12.86
2019-05-15T09:45:18.451Z,13.05
2019-05-15T09:47:48.417Z,13.14
2019-05-15T09:50:19.511Z,13.36
2019-05-15T09:52:50.207Z,13.33
2019-05-15T09:55:19.183Z,13.16
2019-05-15T09:57:49.068Z,13.51
2019-05-15T10:00:21.103Z,13.28
2019-05-15T10:02:49.798Z,13.09
2019-05-15T10:05:18.954Z,13.07
2019-05-15T10:07:47.706Z,12.94
2019-05-15T10:10:16.351Z,12.61
2019-05-15T10:12:45.045Z,12.32
2019-05-15T10:15:14.590Z,12.27
2019-05-15T10:17:43.317Z,12.15
2019-05-15T10:20:12.885Z,11.97
2019-05-15T10:22:41.615Z,11.86
2019-05-15T10:25:11.242Z,12.09
2019-05-15T10:27:40.009Z,12.06
2019-05-15T10:30:10.411Z,11.92
2019-05-15T10:32:39.772Z,12.05
2019-05-15T10:35:24.531Z,12.42
2019-05-15T10:37:40.448Z,12.63
2019-05-15T10:40:09.789Z,12.71
2019-05-15T10:42:39.836Z,12.95
2019-05-15T10:45:10.214Z,13.24
2019-05-15T10:47:39.185Z,13.13
2019-05-15T10:50:09.725Z,12.77
2019-05-15T10:52:38.907Z,12.83
2019-05-15T10:55:09.916Z,12.68
2019-05-15T10:57:42.777Z,12.64
2019-05-15T11:00:10.279Z,12.53
2019-05-15T11:02:39.320Z,12.77
2019-05-15T11:05:09.843Z,12.48
2019-05-15T11:07:39.305Z,12.67
2019-05-15T11:10:09.372Z,12.78
2019-05-15T11:12:38.940Z,12.52
2019-05-15T11:15:11.366Z,12.52
2019-05-15T11:17:40.357Z,12.52
2019-05-15T11:20:10.282Z,12.46
2019-05-15T11:22:42.827Z,12.36
2019-05-15T11:25:10.506Z,12.65
2019-05-15T11:27:39.408Z,12.70
2019-05-15T11:30:09.563Z,12.81
2019-05-15T11:32:39.058Z,12.77
2019-05-15T11:35:09.102Z,12.70
2019-05-15T11:37:46.021Z,12.62
2019-05-15T11:40:11.186Z,12.47
2019-05-15T11:42:40.191Z,12.72
2019-05-15T11:45:10.034Z,12.79
2019-05-15T11:47:39.999Z,12.84
2019-05-15T11:50:10.273Z,12.87
2019-05-15T11:52:40.412Z,12.78
2019-05-15T11:55:10.038Z,12.69
2019-05-15T11:57:47.012Z,12.84
2019-05-15T12:00:17.117Z,12.98
2019-05-15T12:02:41.212Z,13.08
2019-05-15T12:05:10.306Z,13.10
2019-05-15T12:07:38.930Z,12.93
2019-05-15T12:10:10.603Z,12.88
2019-05-15T12:12:39.701Z,12.93
2019-05-15T12:15:09.285Z,13.01
2019-05-15T12:17:39.041Z,13.02
2019-05-15T12:20:10.720Z,13.05
2019-05-15T12:22:39.505Z,13.19
2019-05-15T12:25:10.158Z,13.23
2019-05-15T12:27:40.504Z,13.08
2019-05-15T12:30:11.274Z,13.11
2019-05-15T12:32:40.671Z,13.15
2019-05-15T12:35:10.125Z,13.18
2019-05-15T12:37:40.185Z,13.32
2019-05-15T13:00:15.459Z,13.46
2019-05-15T13:02:44.153Z,13.42
2019-05-15T13:05:13.352Z,13.51
2019-05-15T13:07:41.796Z,13.48
2019-05-15T13:10:11.419Z,13.64
2019-05-15T13:12:55.278Z,13.58
2019-05-15T13:15:10.540Z,13.53
2019-05-15T13:17:39.121Z,13.53
2019-05-15T13:20:09.235Z,13.67
2019-05-15T13:22:39.444Z,13.65
2019-05-15T13:25:09.368Z,13.56
2019-05-15T13:27:38.544Z,13.45
2019-05-15T13:30:09.344Z,13.67
2019-05-15T13:32:40.637Z,13.59
2019-05-15T13:35:09.891Z,13.56
2019-05-15T13:37:39.318Z,13.72
2019-05-15T13:40:08.428Z,13.81
2019-05-15T13:42:39.036Z,13.56
2019-05-15T13:45:13.222Z,13.58
2019-05-15T13:47:39.828Z,13.67
2019-05-15T13:50:09.003Z,13.69
2019-05-15T13:52:39.266Z,13.53
2019-05-15T13:55:08.716Z,13.52
2019-05-15T13:57:38.475Z,13.41
2019-05-15T14:00:09.809Z,13.40
2019-05-15T14:02:38.934Z,13.43
2019-05-15T14:05:09.374Z,13.35
2019-05-15T14:07:48.873Z,13.40
2019-05-15T14:10:09.942Z,13.42
2019-05-15T14:12:38.824Z,13.39
2019-05-15T14:15:09.235Z,13.43
2019-05-15T14:17:38.614Z,13.48
2019-05-15T14:20:08.997Z,13.47
2019-05-15T14:22:38.930Z,13.50
2019-05-15T14:25:09.190Z,13.35
2019-05-15T14:27:39.906Z,13.44
2019-05-15T14:30:10.321Z,13.33
2019-05-15T14:32:39.622Z,13.31
2019-05-15T14:35:09.747Z,13.33
2019-05-15T14:37:38.397Z,13.39
2019-05-15T14:40:10.283Z,13.46
2019-05-15T14:42:39.926Z,13.48
2019-05-15T14:45:10.285Z,13.44
2019-05-15T14:47:40.121Z,13.51
2019-05-15T14:50:10.428Z,13.57
2019-05-15T14:52:39.247Z,13.64
2019-05-15T14:55:09.040Z,13.64
2019-05-15T14:57:39.275Z,13.62
2019-05-15T15:00:09.156Z,13.61
2019-05-15T15:02:39.128Z,13.58
2019-05-15T15:05:09.342Z,13.40
2019-05-15T15:07:39.111Z,13.39
2019-05-15T15:10:08.515Z,13.31
2019-05-15T15:12:39.801Z,13.29
2019-05-15T15:15:10.500Z,13.25
2019-05-15T15:17:39.956Z,13.23
2019-05-15T15:20:09.750Z,13.20
2019-05-15T15:22:39.381Z,13.12
2019-05-15T15:25:09.985Z,13.09
2019-05-15T15:27:39.595Z,13.14
2019-05-15T15:30:09.518Z,13.12
2019-05-15T15:32:38.695Z,13.04
2019-05-15T15:35:09.804Z,13.06
2019-05-15T15:37:38.653Z,13.02
2019-05-15T15:40:08.632Z,13.00
2019-05-15T15:42:39.398Z,12.99
2019-05-15T15:45:09.552Z,12.98
2019-05-15T15:47:38.930Z,13.03
2019-05-15T15:50:09.525Z,13.16
2019-05-15T15:52:39.016Z,13.17
2019-05-15T15:55:09.318Z,13.08
2019-05-15T15:57:39.819Z,13.01
2019-05-15T16:00:10.315Z,12.93
2019-05-15T16:02:41.162Z,12.89
2019-05-15T16:05:09.628Z,12.94
2019-05-15T16:07:38.259Z,12.92
2019-05-15T16:10:08.698Z,12.90
2019-05-15T16:12:38.892Z,12.84
2019-05-15T16:15:09.416Z,12.85
2019-05-15T16:17:38.779Z,12.81
2019-05-15T16:20:09.487Z,12.76
2019-05-15T16:22:38.586Z,12.74
2019-05-15T16:25:09.724Z,12.71
2019-05-15T16:27:38.519Z,12.69
2019-05-15T16:30:08.502Z,12.69
2019-05-15T16:32:38.965Z,12.66
2019-05-15T16:35:09.355Z,12.65
2019-05-15T16:37:38.847Z,12.72
2019-05-15T16:40:08.549Z,12.76
2019-05-15T16:42:38.523Z,12.73
2019-05-15T16:45:10.760Z,12.67
2019-05-15T16:47:40.249Z,12.63
2019-05-15T16:50:10.294Z,12.59
2019-05-15T16:52:39.175Z,12.55
2019-05-15T16:55:09.812Z,12.56
2019-05-15T16:57:39.075Z,12.62
2019-05-15T17:00:10.070Z,12.71
2019-05-15T17:02:39.860Z,12.68
2019-05-15T17:05:09.722Z,12.67
2019-05-15T17:07:39.011Z,12.62
2019-05-15T17:10:09.058Z,12.54
2019-05-15T17:12:38.602Z,12.54
2019-05-15T17:15:09.917Z,12.58
2019-05-15T17:17:39.754Z,12.54
2019-05-15T17:20:10.268Z,12.54
2019-05-15T17:22:39.249Z,12.48
2019-05-15T17:25:09.548Z,12.48
2019-05-15T17:27:38.459Z,12.44
2019-05-15T17:30:09.445Z,12.43
2019-05-15T17:32:39.223Z,12.52
2019-05-15T17:35:10.124Z,12.59
2019-05-15T17:37:39.513Z,12.53
2019-05-15T17:40:09.525Z,12.49
2019-05-15T17:42:38.817Z,12.50
2019-05-15T17:45:09.257Z,12.48
2019-05-15T17:47:39.591Z,12.38
2019-05-15T17:50:09.949Z,12.32
2019-05-15T17:52:39.066Z,12.28
2019-05-15T17:55:08.457Z,12.28
2019-05-15T17:57:38.669Z,12.27
2019-05-15T18:00:12.402Z,12.26
2019-05-15T18:02:39.342Z,12.26
2019-05-15T18:05:08.613Z,12.21
2019-05-15T18:07:38.976Z,12.17
2019-05-15T18:10:08.622Z,12.15
2019-05-15T18:12:38.942Z,12.13
2019-05-15T18:15:09.136Z,12.06
2019-05-15T18:17:39.160Z,12.00
2019-05-15T18:20:10.164Z,11.94
2019-05-15T18:22:39.323Z,11.96
2019-05-15T18:25:09.377Z,12.16
2019-05-15T18:27:39.042Z,12.22
2019-05-15T18:30:09.392Z,12.19
2019-05-15T18:32:39.069Z,12.13
2019-05-15T18:35:08.430Z,12.04
2019-05-15T18:37:39.298Z,12.04
2019-05-15T18:40:09.860Z,11.96
2019-05-15T18:42:39.568Z,11.90
2019-05-15T18:45:09.522Z,11.83
2019-05-15T18:47:38.940Z,11.79
2019-05-15T18:50:13.190Z,11.74
2019-05-15T18:52:39.312Z,11.68
2019-05-15T18:55:09.204Z,11.67
2019-05-15T18:57:38.483Z,11.66
2019-05-15T19:00:10.814Z,11.64
2019-05-15T19:02:39.631Z,11.59
2019-05-15T19:05:09.607Z,11.58
2019-05-15T19:07:38.573Z,11.56
2019-05-15T19:10:11.151Z,11.54
2019-05-15T19:12:39.773Z,11.55
2019-05-15T19:15:09.597Z,11.51
2019-05-15T19:17:39.081Z,11.49
2019-05-15T19:20:09.232Z,11.44
2019-05-15T19:22:40.947Z,11.40
2019-05-15T19:25:10.934Z,11.35
2019-05-15T19:27:39.637Z,11.31
2019-05-15T19:30:09.470Z,11.25
2019-05-15T19:32:38.943Z,11.21
2019-05-15T19:35:09.000Z,11.15
2019-05-15T19:37:38.601Z,11.12
2019-05-15T19:40:09.099Z,11.12
2019-05-15T19:42:38.488Z,11.06
2019-05-15T19:45:08.909Z,11.03
2019-05-15T19:47:38.699Z,11.00
2019-05-15T19:50:08.887Z,10.99
2019-05-15T19:52:37.540Z,10.93
2019-05-15T19:55:08.825Z,10.86
2019-05-15T19:57:39.065Z,10.83
2019-05-15T20:00:09.498Z,10.86
2019-05-15T20:02:38.381Z,10.76
2019-05-15T20:05:09.345Z,10.72
2019-05-15T20:07:38.909Z,10.81
2019-05-15T20:10:09.982Z,10.77
2019-05-15T20:12:39.363Z,10.73
2019-05-15T20:15:09.472Z,10.74
2019-05-15T20:17:38.763Z,10.68
2019-05-15T20:20:09.100Z,10.67
2019-05-15T20:22:40.349Z,10.68
2019-05-15T20:25:08.915Z,10.71
2019-05-15T20:27:39.073Z,10.70
2019-05-15T20:30:09.016Z,10.68
2019-05-15T20:32:38.571Z,10.64
2019-05-15T20:35:08.824Z,10.57
2019-05-15T20:37:39.157Z,10.58
2019-05-15T20:40:10.537Z,10.58
2019-05-15T20:42:39.178Z,10.54
2019-05-15T20:45:12.358Z,10.48
2019-05-15T20:47:41.266Z,10.47
2019-05-15T20:50:11.352Z,10.48
2019-05-15T20:52:39.902Z,10.44
2019-05-15T20:55:09.431Z,10.41
2019-05-15T20:57:40.911Z,10.39
2019-05-15T21:00:11.293Z,10.37
2019-05-15T21:02:40.254Z,10.35
2019-05-15T21:05:09.145Z,10.36
2019-05-15T21:07:40.017Z,10.40
2019-05-15T21:10:09.375Z,10.41
2019-05-15T21:12:41.181Z,10.39
2019-05-15T21:15:09.932Z,10.37
2019-05-15T21:17:40.197Z,10.33
2019-05-15T21:20:09.898Z,10.29
2019-05-15T21:22:40.328Z,10.31
2019-05-15T21:25:10.678Z,10.29
2019-05-15T21:27:42.109Z,10.28
2019-05-15T21:30:11.270Z,10.29
2019-05-15T21:32:39.888Z,10.29
2019-05-15T21:35:09.447Z,10.31
2019-05-15T21:37:39.271Z,10.35
2019-05-15T21:40:09.366Z,10.32
2019-05-15T21:42:41.580Z,10.25
2019-05-15T21:45:14.129Z,10.24
2019-05-15T21:47:39.502Z,10.21
2019-05-15T21:50:08.744Z,10.15
2019-05-15T21:52:38.986Z,10.28
2019-05-15T21:55:09.631Z,10.19
2019-05-15T21:57:40.135Z,10.16
2019-05-15T22:00:14.859Z,10.11
2019-05-15T22:02:43.680Z,10.04
2019-05-15T22:05:12.302Z,10.03
2019-05-15T22:07:41.026Z,10.06
2019-05-15T22:10:11.040Z,10.03
2019-05-15T22:12:40.166Z,9.94
2019-05-15T22:15:09.372Z,9.94
2019-05-15T22:17:39.008Z,9.91
2019-05-15T22:20:09.492Z,9.87
2019-05-15T22:22:38.030Z,9.74
2019-05-15T22:25:08.607Z,9.65
2019-05-15T22:27:38.285Z,9.57
2019-05-15T22:30:08.714Z,9.52
2019-05-15T22:32:41.314Z,9.46
2019-05-15T22:35:13.746Z,9.40
2019-05-15T22:37:41.601Z,9.37
2019-05-15T22:40:11.289Z,9.35
2019-05-15T22:42:40.063Z,9.37
2019-05-15T22:45:11.787Z,9.38
2019-05-15T22:47:39.876Z,9.32
2019-05-15T22:50:09.107Z,9.26
2019-05-15T22:52:38.993Z,9.23
2019-05-15T22:55:08.913Z,9.18
2019-05-15T22:57:38.874Z,9.14
2019-05-15T23:00:10.087Z,9.15
2019-05-15T23:02:38.840Z,9.19
2019-05-15T23:05:23.500Z,9.15
2019-05-15T23:07:39.109Z,9.17
2019-05-15T23:10:09.027Z,9.14
2019-05-15T23:12:38.385Z,9.09
2019-05-15T23:15:08.945Z,9.05
2019-05-15T23:17:38.396Z,9.09
2019-05-15T23:20:09.474Z,9.04
2019-05-15T23:22:38.625Z,9.01
2019-05-15T23:25:08.153Z,8.91
2019-05-15T23:27:38.145Z,8.81
2019-05-15T23:30:08.913Z,8.77
2019-05-15T23:32:39.220Z,8.76
2019-05-15T23:35:08.751Z,8.68
2019-05-15T23:37:39.230Z,8.66
2019-05-15T23:40:09.164Z,8.61
2019-05-15T23:42:39.213Z,8.63
2019-05-15T23:45:08.699Z,8.56
2019-05-15T23:47:38.346Z,8.57
2019-05-15T23:50:08.230Z,8.56
2019-05-15T23:52:38.530Z,8.57
2019-05-15T23:55:10.767Z,8.60
2019-05-15T23:57:39.523Z,8.59
